Archival Weather

Aeroparque Jorge Newbery

Buenos Aires, Argentina (SABE)

Report from: Tuesday, September 19, 2023 2:00 PM -03
Current time: Friday, June 21, 2024 8:02 PM -03

Current weather – Weather history – Daily summaries
Weather forecast

Temperature16.0°C (60.8°F)
Dew point11.0°C (51.8°F)
Winds 17 kts (8.7 m/s, 19.6 mph) East-Southeast (120°)
Visibility6.2 mi. (10 km)
Clouds Scattered clouds 3,900 ft. (1,189 m)
Ceiling: Broken clouds 10,000 ft. (3,048 m)
Altimeter30.15 in.Hg (1021 mB)
Relative humidity72 %
Density altitude42 ft. (13 m)
Remarks No significant changes expected in the next two hours
Flight conditions Visual Meteorological Conditions
Raw dataSABE 191700Z 12017KT 9999 SCT039 BKN100 16/11 Q1021 NOSIG RMK PP000
An error has occurred. This application may no longer respond until reloaded. Reload 🗙